Time;durP1;ratioP1;P1;durP2;ratioP2;P2;SDS_P1;SDS_P2;PMS_P1;PMS_P2;Temp;Humidity;BMP_temperature;BMP_pressure;BME280_temperature;BME280_humidity;BME280_pressure;Samples;Min_cycle;Max_cycle;Signal;HPM_P1;HPM_P2
2021/03/26 00:01:42;;;;;;;;;;;5.00;99.90;;;;;;5091222;28;19952;-74
2021/03/26 00:04:09;;;;;;;;;;;5.10;99.90;;;;;;5087949;28;19909;-74
2021/03/26 00:06:36;;;;;;;;;;;5.10;99.90;;;;;;5087926;28;19908;-74
2021/03/26 00:09:02;;;;;;;;;;;5.20;99.90;;;;;;5088595;28;19961;-73
2021/03/26 00:11:29;;;;;;;;;;;5.40;99.90;;;;;;5088076;28;19915;-75
2021/03/26 00:13:54;;;;;;;;;;;5.50;99.90;;;;;;5086641;28;19908;-75
2021/03/26 00:16:20;;;;;;;;;;;5.50;99.90;;;;;;5087554;28;19923;-74
2021/03/26 00:18:46;;;;;;;;;;;5.60;99.90;;;;;;5086686;28;19958;-75
2021/03/26 00:21:12;;;;;;;;;;;5.60;99.90;;;;;;5087945;28;20003;-73
2021/03/26 00:23:37;;;;;;;;;;;5.60;99.90;;;;;;5086553;28;19909;-75
2021/03/26 00:26:03;;;;;;;;;;;5.60;99.90;;;;;;5086287;28;19909;-75
2021/03/26 00:28:29;;;;;;;;;;;5.70;99.90;;;;;;5085874;28;19970;-75
2021/03/26 00:30:54;;;;;;;;;;;5.70;99.90;;;;;;5087495;28;19940;-75
2021/03/26 00:33:20;;;;;;;;;;;5.60;99.90;;;;;;5086487;28;19943;-73
2021/03/26 00:35:47;;;;;;;;;;;5.60;99.90;;;;;;5085847;28;20046;-74
2021/03/26 00:38:12;;;;;;;;;;;5.50;99.90;;;;;;5086268;28;20381;-75
2021/03/26 00:40:38;;;;;;;;;;;5.40;99.90;;;;;;5086273;28;19908;-73
2021/03/26 00:43:04;;;;;;;;;;;5.30;99.90;;;;;;5087312;28;20341;-75
2021/03/26 00:45:31;;;;;;;;;;;5.30;99.90;;;;;;5086098;28;19919;-75
2021/03/26 00:47:57;;;;;;;;;;;5.20;99.90;;;;;;5077299;28;19908;-74
2021/03/26 00:50:31;;;;;;;;;;;5.20;99.90;;;;;;5073951;28;20373;-74
2021/03/26 00:52:58;;;;;;;;;;;5.10;99.90;;;;;;5072590;28;19909;-74
2021/03/26 00:55:23;;;;;;;;;;;5.10;99.90;;;;;;5072478;28;19919;-74
2021/03/26 00:57:49;;;;;;;;;;;5.10;99.90;;;;;;5073214;28;19909;-74
2021/03/26 01:00:16;;;;;;;;;;;5.00;99.90;;;;;;5071870;28;20426;-73
2021/03/26 01:02:42;;;;;;;;;;;5.10;99.90;;;;;;5072199;28;19995;-75
2021/03/26 01:05:08;;;;;;;;;;;5.10;99.90;;;;;;5073805;28;19996;-75
2021/03/26 01:07:33;;;;;;;;;;;5.10;99.90;;;;;;5073106;28;19916;-75
2021/03/26 01:09:59;;;;;;;;;;;5.20;99.90;;;;;;5073617;28;19909;-74
2021/03/26 01:12:25;;;;;;;;;;;5.20;99.90;;;;;;5073224;28;20285;-73
2021/03/26 01:14:50;;;;;;;;;;;5.30;99.90;;;;;;5072372;28;20321;-75
2021/03/26 01:17:16;;;;;;;;;;;5.40;99.90;;;;;;5072027;28;19908;-74
2021/03/26 01:19:43;;;;;;;;;;;5.40;99.90;;;;;;5073324;28;19991;-74
2021/03/26 01:22:08;;;;;;;;;;;5.50;99.90;;;;;;5072047;28;20373;-75
2021/03/26 01:24:34;;;;;;;;;;;5.60;99.90;;;;;;5073369;28;19943;-75
2021/03/26 01:27:00;;;;;;;;;;;5.60;99.90;;;;;;5072666;28;20305;-75
2021/03/26 01:29:25;;;;;;;;;;;5.70;99.90;;;;;;5071247;28;19909;-74
2021/03/26 01:31:52;;;;;;;;;;;5.70;99.90;;;;;;5072928;28;19916;-74
2021/03/26 01:34:17;;;;;;;;;;;5.70;99.90;;;;;;5071883;28;19912;-74
2021/03/26 01:36:42;;;;;;;;;;;5.70;99.90;;;;;;5071281;28;20416;-74
2021/03/26 01:39:08;;;;;;;;;;;5.70;99.90;;;;;;5073087;28;19932;-74
2021/03/26 01:41:37;;;;;;;;;;;5.70;99.90;;;;;;5071432;28;19913;-74
2021/03/26 01:44:04;;;;;;;;;;;5.60;99.90;;;;;;5072962;28;19912;-75
2021/03/26 01:46:29;;;;;;;;;;;5.50;99.90;;;;;;5072462;28;19909;-75
2021/03/26 01:48:57;;;;;;;;;;;5.40;99.90;;;;;;5072777;28;19962;-75
2021/03/26 01:51:25;;;;;;;;;;;5.40;99.90;;;;;;5072682;28;19930;-74
2021/03/26 01:53:50;;;;;;;;;;;5.30;99.90;;;;;;5072631;28;19959;-74
2021/03/26 01:56:16;;;;;;;;;;;5.20;99.90;;;;;;5072095;28;19963;-74
2021/03/26 01:58:42;;;;;;;;;;;5.10;99.90;;;;;;5069819;28;19908;-75
2021/03/26 02:01:10;;;;;;;;;;;5.00;99.90;;;;;;5072434;28;19935;-75
2021/03/26 02:03:38;;;;;;;;;;;4.80;99.90;;;;;;5071258;28;19913;-75
2021/03/26 02:06:06;;;;;;;;;;;4.60;99.90;;;;;;5070779;28;20045;-75
2021/03/26 02:08:33;;;;;;;;;;;4.50;99.90;;;;;;5072327;28;20278;-75
2021/03/26 02:11:22;;;;;;;;;;;4.50;99.90;;;;;;5070876;28;19909;-74
2021/03/26 02:13:48;;;;;;;;;;;4.50;99.90;;;;;;5067946;28;19912;-75
2021/03/26 02:16:14;;;;;;;;;;;4.40;99.90;;;;;;5070530;28;19919;-75
2021/03/26 02:18:40;;;;;;;;;;;4.40;99.90;;;;;;5072228;28;19915;-74
2021/03/26 02:21:26;;;;;;;;;;;4.30;99.90;;;;;;5072005;28;19912;-74
2021/03/26 02:23:55;;;;;;;;;;;4.40;99.90;;;;;;5070428;28;20121;-74
2021/03/26 02:26:23;;;;;;;;;;;4.40;99.90;;;;;;5071639;28;19909;-74
2021/03/26 02:28:49;;;;;;;;;;;4.50;99.90;;;;;;5071941;28;20298;-74
2021/03/26 02:31:15;;;;;;;;;;;4.50;99.90;;;;;;5070482;28;20018;-74
2021/03/26 02:33:41;;;;;;;;;;;4.50;99.90;;;;;;5070652;28;19908;-74
2021/03/26 02:36:13;;;;;;;;;;;4.50;99.90;;;;;;5070274;28;20388;-74
2021/03/26 02:38:59;;;;;;;;;;;4.50;99.90;;;;;;5070551;28;19966;-74
2021/03/26 02:41:24;;;;;;;;;;;4.50;99.90;;;;;;5071406;28;19908;-75
2021/03/26 02:44:11;;;;;;;;;;;4.50;99.90;;;;;;5071578;28;19955;-74
2021/03/26 02:46:52;;;;;;;;;;;4.50;99.90;;;;;;5071307;28;19966;-73
2021/03/26 02:49:24;;;;;;;;;;;4.50;99.90;;;;;;5070369;28;19923;-74
2021/03/26 02:52:02;;;;;;;;;;;4.50;99.90;;;;;;5071413;28;19916;-75
2021/03/26 02:54:28;;;;;;;;;;;4.40;99.90;;;;;;5069625;28;19923;-74
2021/03/26 02:57:19;;;;;;;;;;;4.40;99.90;;;;;;5069726;28;19913;-74
2021/03/26 02:59:48;;;;;;;;;;;4.40;99.90;;;;;;5061988;28;19950;-75
2021/03/26 03:02:15;;;;;;;;;;;4.30;99.90;;;;;;5070243;28;20019;-74
2021/03/26 03:04:46;;;;;;;;;;;4.10;99.90;;;;;;5070115;28;19944;-74
2021/03/26 03:07:18;;;;;;;;;;;4.00;99.90;;;;;;5069817;28;20293;-72
2021/03/26 03:09:46;;;;;;;;;;;3.90;99.90;;;;;;5070981;28;19912;-74
2021/03/26 03:12:25;;;;;;;;;;;3.90;99.90;;;;;;5070317;28;20289;-74
2021/03/26 03:14:57;;;;;;;;;;;3.90;99.90;;;;;;5071309;28;19908;-74
2021/03/26 03:17:28;;;;;;;;;;;3.90;99.90;;;;;;5070705;28;19998;-74
2021/03/26 03:20:01;;;;;;;;;;;3.80;99.90;;;;;;5071264;28;19915;-74
2021/03/26 03:22:26;;;;;;;;;;;3.70;99.90;;;;;;5067045;28;19920;-74
2021/03/26 03:24:53;;;;;;;;;;;3.60;99.90;;;;;;5070870;28;19908;-74
2021/03/26 03:27:31;;;;;;;;;;;3.50;99.90;;;;;;5070806;28;19912;-74
2021/03/26 03:30:03;;;;;;;;;;;3.50;99.90;;;;;;5071061;28;19936;-74
2021/03/26 03:32:41;;;;;;;;;;;3.50;99.90;;;;;;5071095;28;19915;-74
2021/03/26 03:35:25;;;;;;;;;;;3.50;99.90;;;;;;5069615;28;19912;-74
2021/03/26 03:38:01;;;;;;;;;;;3.50;99.90;;;;;;5069371;28;20431;-74
2021/03/26 03:40:31;;;;;;;;;;;3.50;99.90;;;;;;5070862;28;19936;-74
2021/03/26 03:43:02;;;;;;;;;;;3.60;99.90;;;;;;5070908;28;20273;-74
2021/03/26 03:45:43;;;;;;;;;;;3.60;99.90;;;;;;5069767;28;20186;-74
2021/03/26 03:48:15;;;;;;;;;;;3.70;99.90;;;;;;5070968;28;19908;-75
2021/03/26 03:50:43;;;;;;;;;;;3.70;99.90;;;;;;5069550;28;19935;-73
2021/03/26 03:53:12;;;;;;;;;;;3.60;99.90;;;;;;5066534;28;19913;-74
2021/03/26 03:55:50;;;;;;;;;;;3.60;99.90;;;;;;5070640;28;20031;-74
2021/03/26 03:58:18;;;;;;;;;;;3.60;99.90;;;;;;5062631;28;19913;-74
2021/03/26 04:00:47;;;;;;;;;;;3.60;99.90;;;;;;5070073;28;19954;-74
2021/03/26 04:03:15;;;;;;;;;;;3.80;99.90;;;;;;5071258;28;20269;-74
2021/03/26 04:05:45;;;;;;;;;;;3.80;99.90;;;;;;5069234;28;19914;-74
2021/03/26 04:08:17;;;;;;;;;;;3.90;99.90;;;;;;5070808;28;19909;-74
2021/03/26 04:10:44;;;;;;;;;;;4.00;99.90;;;;;;5070834;28;19934;-75
2021/03/26 04:13:14;;;;;;;;;;;4.00;99.90;;;;;;5069383;28;19913;-74
2021/03/26 04:15:49;;;;;;;;;;;4.00;99.90;;;;;;5068786;28;19944;-75
2021/03/26 04:18:14;;;;;;;;;;;4.10;99.90;;;;;;5070760;28;19931;-75
2021/03/26 04:20:42;;;;;;;;;;;4.20;99.90;;;;;;5070767;28;20377;-74
2021/03/26 04:23:11;;;;;;;;;;;4.20;99.90;;;;;;5071378;28;19908;-74
2021/03/26 04:25:40;;;;;;;;;;;4.30;99.90;;;;;;5074249;28;20414;-74
2021/03/26 04:28:15;;;;;;;;;;;4.40;99.90;;;;;;5065728;28;19912;-73
2021/03/26 04:30:42;;;;;;;;;;;4.40;99.90;;;;;;5074307;28;19909;-75
2021/03/26 04:33:08;;;;;;;;;;;4.50;99.90;;;;;;5072913;28;19915;-74
2021/03/26 04:35:34;;;;;;;;;;;4.40;99.90;;;;;;5072806;28;19916;-74
2021/03/26 04:38:00;;;;;;;;;;;4.40;99.90;;;;;;5074222;28;20010;-74
2021/03/26 04:40:25;;;;;;;;;;;4.50;99.90;;;;;;5073371;28;19948;-74
2021/03/26 04:42:55;;;;;;;;;;;4.50;99.90;;;;;;5072892;28;20007;-74
2021/03/26 04:45:27;;;;;;;;;;;4.60;99.90;;;;;;5074438;28;20365;-74
2021/03/26 04:47:59;;;;;;;;;;;4.60;99.90;;;;;;5072615;28;19991;-74
2021/03/26 04:50:32;;;;;;;;;;;4.60;99.90;;;;;;5074325;28;19954;-74
2021/03/26 04:53:03;;;;;;;;;;;4.60;99.90;;;;;;5073919;28;19915;-73
2021/03/26 04:55:34;;;;;;;;;;;4.70;99.90;;;;;;5077466;28;19913;-75
2021/03/26 04:58:00;;;;;;;;;;;4.80;99.90;;;;;;5066495;28;19931;-74
2021/03/26 05:00:32;;;;;;;;;;;4.90;99.90;;;;;;5092256;28;20292;-74
2021/03/26 05:03:03;;;;;;;;;;;4.90;99.90;;;;;;5094082;28;19915;-74
2021/03/26 05:05:30;;;;;;;;;;;4.90;99.90;;;;;;5093961;28;19954;-74
2021/03/26 05:07:58;;;;;;;;;;;5.00;99.90;;;;;;5082434;28;19962;-74
2021/03/26 05:10:27;;;;;;;;;;;5.00;99.90;;;;;;5071546;28;19909;-74
2021/03/26 05:12:54;;;;;;;;;;;5.00;99.90;;;;;;5073747;28;19909;-73
2021/03/26 05:15:26;;;;;;;;;;;5.10;99.90;;;;;;5073596;28;19913;-74
2021/03/26 05:17:57;;;;;;;;;;;5.10;99.90;;;;;;5073460;28;19915;-74
2021/03/26 05:20:46;;;;;;;;;;;5.00;99.90;;;;;;5073591;28;19927;-74
2021/03/26 05:23:17;;;;;;;;;;;5.00;99.90;;;;;;5072178;28;19999;-74
2021/03/26 05:25:44;;;;;;;;;;;5.00;99.90;;;;;;5073341;28;19954;-73
2021/03/26 05:28:38;;;;;;;;;;;5.00;99.90;;;;;;5073364;28;19963;-74
2021/03/26 05:31:15;;;;;;;;;;;4.90;99.90;;;;;;5072893;28;19912;-74
2021/03/26 05:33:42;;;;;;;;;;;4.90;99.90;;;;;;5073424;28;20193;-75
2021/03/26 05:36:14;;;;;;;;;;;4.90;99.90;;;;;;5072764;28;19923;-75
2021/03/26 05:38:45;;;;;;;;;;;4.80;99.90;;;;;;5064541;28;20050;-74
2021/03/26 05:41:25;;;;;;;;;;;4.70;99.90;;;;;;5073143;28;20319;-72
2021/03/26 05:43:51;;;;;;;;;;;4.60;99.90;;;;;;5073297;28;20023;-74
2021/03/26 05:46:34;;;;;;;;;;;4.50;99.90;;;;;;5072774;28;19912;-74
2021/03/26 05:49:05;;;;;;;;;;;4.50;99.90;;;;;;5072950;28;19915;-74
2021/03/26 05:51:37;;;;;;;;;;;4.50;99.90;;;;;;5072769;28;19912;-73
2021/03/26 05:54:05;;;;;;;;;;;4.40;99.90;;;;;;5073019;28;20331;-73
2021/03/26 05:56:34;;;;;;;;;;;4.40;99.90;;;;;;5072549;28;19919;-75
2021/03/26 05:59:18;;;;;;;;;;;4.40;99.90;;;;;;5071480;28;20365;-74
2021/03/26 06:01:50;;;;;;;;;;;4.30;99.90;;;;;;5073234;28;19931;-74
2021/03/26 06:04:33;;;;;;;;;;;4.30;99.90;;;;;;5071446;28;19909;-73
2021/03/26 06:07:18;;;;;;;;;;;4.30;99.90;;;;;;5072295;28;19909;-74
2021/03/26 06:09:53;;;;;;;;;;;4.40;99.90;;;;;;5065098;28;20064;-74
2021/03/26 06:12:38;;;;;;;;;;;4.40;99.90;;;;;;5070926;28;19947;-74
2021/03/26 06:15:06;;;;;;;;;;;4.40;99.90;;;;;;5072410;28;20270;-74
2021/03/26 06:17:40;;;;;;;;;;;4.40;99.90;;;;;;5072136;28;19935;-74
2021/03/26 06:20:12;;;;;;;;;;;4.50;99.90;;;;;;5071317;28;19938;-74
2021/03/26 06:22:56;;;;;;;;;;;4.50;99.90;;;;;;5070975;28;19915;-74
2021/03/26 06:25:40;;;;;;;;;;;4.50;99.90;;;;;;5072331;28;20008;-75
2021/03/26 06:28:06;;;;;;;;;;;4.50;99.90;;;;;;5072291;28;19993;-74
2021/03/26 06:30:34;;;;;;;;;;;4.70;99.90;;;;;;5072298;28;20014;-74
2021/03/26 06:33:11;;;;;;;;;;;4.70;99.90;;;;;;5070771;28;19908;-74
2021/03/26 06:35:37;;;;;;;;;;;4.90;99.90;;;;;;5071669;28;19923;-74
2021/03/26 06:38:02;;;;;;;;;;;5.00;99.90;;;;;;5064836;28;19909;-74
2021/03/26 06:40:46;;;;;;;;;;;5.10;99.90;;;;;;5070253;28;19965;-75
2021/03/26 06:43:25;;;;;;;;;;;5.30;99.90;;;;;;5070657;28;20266;-75
2021/03/26 06:46:05;;;;;;;;;;;5.60;99.90;;;;;;5069820;28;19912;-75
2021/03/26 06:48:37;;;;;;;;;;;5.80;99.90;;;;;;5072038;28;19944;-75
2021/03/26 06:51:11;;;;;;;;;;;6.00;99.90;;;;;;5071772;28;20280;-74
2021/03/26 06:53:48;;;;;;;;;;;6.20;99.90;;;;;;5071786;28;19962;-75
2021/03/26 06:56:13;;;;;;;;;;;6.40;99.90;;;;;;5071204;28;19917;-75
2021/03/26 06:58:58;;;;;;;;;;;6.50;99.90;;;;;;5071751;28;19915;-74
2021/03/26 07:01:29;;;;;;;;;;;6.60;99.90;;;;;;5071654;28;19915;-74
2021/03/26 07:03:55;;;;;;;;;;;6.60;99.90;;;;;;5070401;28;20225;-75
2021/03/26 07:06:34;;;;;;;;;;;6.70;99.90;;;;;;5069913;28;19908;-75
2021/03/26 07:09:18;;;;;;;;;;;6.80;99.90;;;;;;5062904;28;19909;-75
2021/03/26 07:11:50;;;;;;;;;;;7.00;99.90;;;;;;5071391;28;19952;-74
2021/03/26 07:14:34;;;;;;;;;;;7.20;99.90;;;;;;5070204;28;19912;-74
2021/03/26 07:17:12;;;;;;;;;;;7.50;99.90;;;;;;5070839;28;20262;-75
2021/03/26 07:19:56;;;;;;;;;;;7.70;99.90;;;;;;5071392;28;19914;-74
2021/03/26 07:22:39;;;;;;;;;;;7.90;99.90;;;;;;5071381;28;19908;-74
2021/03/26 07:25:23;;;;;;;;;;;8.10;99.90;;;;;;5063604;28;20025;-75
2021/03/26 07:27:51;;;;;;;;;;;8.30;99.90;;;;;;5063951;28;20356;-75
2021/03/26 07:30:27;;;;;;;;;;;8.40;99.90;;;;;;5070023;28;20338;-75
2021/03/26 07:32:52;;;;;;;;;;;8.50;99.90;;;;;;5071332;28;19916;-75
2021/03/26 07:35:28;;;;;;;;;;;8.60;99.90;;;;;;5069712;28;19913;-74
2021/03/26 07:38:11;;;;;;;;;;;8.60;99.90;;;;;;5060788;28;19909;-75
2021/03/26 07:40:43;;;;;;;;;;;8.60;99.90;;;;;;5083265;28;19935;-75
2021/03/26 07:43:09;;;;;;;;;;;8.70;99.90;;;;;;5066707;28;19916;-75
2021/03/26 07:45:53;;;;;;;;;;;8.80;99.90;;;;;;5053454;28;19917;-73
2021/03/26 07:48:39;;;;;;;;;;;8.90;99.90;;;;;;5069241;28;19916;-75
2021/03/26 07:51:27;;;;;;;;;;;9.10;99.90;;;;;;5068968;28;20304;-75
2021/03/26 07:54:01;;;;;;;;;;;9.20;99.90;;;;;;5070527;28;19915;-75
2021/03/26 07:56:50;;;;;;;;;;;9.40;99.90;;;;;;5069688;28;19912;-75
2021/03/26 07:59:41;;;;;;;;;;;9.60;99.90;;;;;;5062590;28;19912;-76
2021/03/26 08:02:32;;;;;;;;;;;10.30;99.90;;;;;;5073215;28;19913;-75
2021/03/26 08:05:04;;;;;;;;;;;11.20;99.90;;;;;;5073588;28;20277;-76
2021/03/26 08:07:42;;;;;;;;;;;12.20;99.90;;;;;;5058581;28;19909;-76
2021/03/26 08:10:46;;;;;;;;;;;13.00;99.90;;;;;;5074579;28;19975;-76
2021/03/26 08:13:30;;;;;;;;;;;13.80;99.90;;;;;;5072069;28;20047;-77
2021/03/26 08:16:07;;;;;;;;;;;14.50;99.90;;;;;;5055182;28;19916;-76
2021/03/26 08:18:42;;;;;;;;;;;15.40;99.30;;;;;;5061407;28;20139;-76
2021/03/26 08:21:10;;;;;;;;;;;16.10;97.20;;;;;;5053244;28;19952;-77
2021/03/26 08:23:36;;;;;;;;;;;16.70;95.70;;;;;;5052910;28;19943;-77
2021/03/26 08:26:01;;;;;;;;;;;17.00;95.10;;;;;;5052526;28;19913;-76
2021/03/26 08:28:27;;;;;;;;;;;17.60;94.60;;;;;;5053240;28;20267;-75
2021/03/26 08:30:52;;;;;;;;;;;18.00;93.60;;;;;;5054556;28;19932;-77
2021/03/26 08:33:38;;;;;;;;;;;18.40;92.00;;;;;;5054155;28;20003;-77
2021/03/26 08:36:16;;;;;;;;;;;18.80;91.70;;;;;;5053738;28;19916;-77
2021/03/26 08:38:45;;;;;;;;;;;19.10;90.30;;;;;;5065792;28;19908;-77
2021/03/26 08:41:26;;;;;;;;;;;19.20;89.20;;;;;;5073870;28;19908;-77
2021/03/26 08:43:52;;;;;;;;;;;19.30;87.40;;;;;;5072718;28;19916;-77
2021/03/26 08:46:20;;;;;;;;;;;19.50;88.20;;;;;;5072554;28;19908;-77
2021/03/26 08:49:12;;;;;;;;;;;19.70;83.50;;;;;;5074013;28;19912;-76
2021/03/26 08:51:41;;;;;;;;;;;19.50;84.90;;;;;;5072411;28;19946;-77
2021/03/26 08:54:18;;;;;;;;;;;19.80;83.70;;;;;;5072860;28;19943;-77
2021/03/26 08:56:53;;;;;;;;;;;20.10;80.30;;;;;;5072478;28;20331;-77
2021/03/26 08:59:37;;;;;;;;;;;20.30;78.00;;;;;;5073849;28;19916;-77
2021/03/26 09:02:08;;;;;;;;;;;20.30;79.40;;;;;;5073705;28;19912;-77
2021/03/26 09:04:49;;;;;;;;;;;20.40;76.60;;;;;;5072398;28;19957;-76
2021/03/26 09:07:27;;;;;;;;;;;20.30;77.70;;;;;;5066223;28;20044;-77
2021/03/26 09:10:31;;;;;;;;;;;20.30;76.10;;;;;;5072188;28;19908;-77
2021/03/26 09:13:09;;;;;;;;;;;20.10;73.90;;;;;;5068566;28;19947;-77
2021/03/26 09:15:55;;;;;;;;;;;20.20;76.90;;;;;;5053493;28;19931;-75
2021/03/26 09:18:39;;;;;;;;;;;20.40;77.40;;;;;;5063824;28;19908;-76
2021/03/26 09:21:20;;;;;;;;;;;20.90;75.80;;;;;;5074661;28;19981;-76
2021/03/26 09:23:54;;;;;;;;;;;21.20;74.80;;;;;;5073194;28;19909;-77
2021/03/26 09:26:38;;;;;;;;;;;21.30;72.00;;;;;;5073082;28;20003;-77
2021/03/26 09:29:13;;;;;;;;;;;21.00;70.50;;;;;;5068182;28;20062;-77
2021/03/26 09:31:45;;;;;;;;;;;20.70;73.90;;;;;;5059690;28;20392;-77
2021/03/26 09:34:28;;;;;;;;;;;21.00;74.60;;;;;;5064943;28;19909;-76
2021/03/26 09:37:11;;;;;;;;;;;21.20;71.30;;;;;;5067584;28;19923;-77
2021/03/26 09:39:39;;;;;;;;;;;21.50;72.90;;;;;;5074103;28;19916;-77
2021/03/26 09:42:24;;;;;;;;;;;21.60;70.30;;;;;;5074227;28;19975;-77
2021/03/26 09:44:57;;;;;;;;;;;21.90;69.60;;;;;;5075400;28;19999;-77
2021/03/26 09:47:37;;;;;;;;;;;21.90;67.60;;;;;;5073674;28;19915;-75
2021/03/26 09:50:18;;;;;;;;;;;22.10;70.00;;;;;;5074754;28;20015;-77
2021/03/26 09:52:44;;;;;;;;;;;21.70;67.10;;;;;;5074782;28;19958;-77
2021/03/26 09:55:09;;;;;;;;;;;21.60;69.10;;;;;;5073306;28;19957;-77
2021/03/26 09:57:35;;;;;;;;;;;21.70;67.90;;;;;;5074680;28;20374;-75
2021/03/26 10:00:19;;;;;;;;;;;21.90;68.40;;;;;;5074142;28;19909;-77
2021/03/26 10:02:53;;;;;;;;;;;21.90;66.30;;;;;;5073223;28;20357;-77
2021/03/26 10:05:31;;;;;;;;;;;21.80;67.00;;;;;;5073781;28;19909;-77
2021/03/26 10:08:07;;;;;;;;;;;21.70;65.30;;;;;;5065372;28;20364;-77
2021/03/26 10:12:59;;;;;;;;;;;22.20;65.40;;;;;;5075232;28;19908;-77
2021/03/26 10:15:48;;;;;;;;;;;22.50;64.80;;;;;;5075121;28;20009;-77
2021/03/26 10:18:21;;;;;;;;;;;22.90;64.80;;;;;;5069996;28;20299;-77
2021/03/26 10:20:51;;;;;;;;;;;23.20;63.70;;;;;;5073114;28;19908;-77
2021/03/26 10:23:36;;;;;;;;;;;23.50;64.50;;;;;;5074675;28;20014;-76
2021/03/26 10:26:04;;;;;;;;;;;23.40;62.20;;;;;;5072638;28;20326;-78
2021/03/26 10:28:29;;;;;;;;;;;23.00;63.20;;;;;;5072280;28;19916;-75
2021/03/26 10:31:04;;;;;;;;;;;22.80;63.10;;;;;;5072916;28;19912;-78
2021/03/26 10:33:32;;;;;;;;;;;22.90;62.60;;;;;;5073165;28;20483;-76
2021/03/26 10:36:02;;;;;;;;;;;22.90;62.50;;;;;;5073738;28;20144;-77
2021/03/26 10:38:38;;;;;;;;;;;22.80;61.60;;;;;;5065686;28;20312;-77
2021/03/26 10:41:07;;;;;;;;;;;22.50;62.20;;;;;;5071788;28;19909;-78
2021/03/26 10:44:02;;;;;;;;;;;22.10;62.80;;;;;;5074044;28;20022;-78
2021/03/26 10:46:35;;;;;;;;;;;22.20;63.10;;;;;;5055929;28;19920;-78
2021/03/26 10:49:03;;;;;;;;;;;22.40;65.10;;;;;;5074164;28;20292;-77
2021/03/26 10:51:34;;;;;;;;;;;22.40;62.70;;;;;;5074055;28;19918;-76
2021/03/26 10:54:02;;;;;;;;;;;22.60;63.30;;;;;;5072627;28;19908;-77
2021/03/26 10:56:46;;;;;;;;;;;22.50;61.30;;;;;;5073777;28;19920;-78
2021/03/26 10:59:18;;;;;;;;;;;22.30;61.90;;;;;;5074568;28;20415;-78
2021/03/26 11:01:44;;;;;;;;;;;22.40;62.20;;;;;;5074661;28;19916;-77
2021/03/26 11:04:21;;;;;;;;;;;22.70;63.10;;;;;;5074196;28;19909;-78
2021/03/26 11:06:50;;;;;;;;;;;22.80;60.80;;;;;;5069255;28;19909;-76
2021/03/26 11:09:20;;;;;;;;;;;23.10;59.90;;;;;;5069778;28;20003;-78
2021/03/26 11:12:05;;;;;;;;;;;23.20;60.20;;;;;;5073561;28;20019;-78
2021/03/26 11:14:33;;;;;;;;;;;22.80;59.40;;;;;;5072577;28;20216;-78
2021/03/26 11:17:03;;;;;;;;;;;22.60;61.90;;;;;;5072440;28;19973;-77
2021/03/26 11:19:31;;;;;;;;;;;22.70;60.00;;;;;;5072900;28;19917;-77
2021/03/26 11:22:03;;;;;;;;;;;22.40;62.50;;;;;;5072532;28;19915;-75
2021/03/26 11:24:37;;;;;;;;;;;22.40;61.90;;;;;;5072891;28;19915;-78
2021/03/26 11:27:17;;;;;;;;;;;22.60;60.60;;;;;;5073972;28;19965;-76
2021/03/26 11:29:45;;;;;;;;;;;22.80;59.10;;;;;;5074580;28;19915;-78
2021/03/26 11:32:24;;;;;;;;;;;23.10;61.00;;;;;;5072702;28;19977;-78
2021/03/26 11:35:06;;;;;;;;;;;23.50;60.70;;;;;;5072967;28;19999;-78
2021/03/26 11:37:35;;;;;;;;;;;23.50;57.30;;;;;;5066015;28;19986;-78
2021/03/26 11:40:07;;;;;;;;;;;23.00;60.10;;;;;;5074194;28;20003;-78
2021/03/26 11:42:36;;;;;;;;;;;22.80;60.00;;;;;;5072973;28;20250;-78
2021/03/26 11:45:19;;;;;;;;;;;22.70;58.80;;;;;;5074395;28;20316;-78
2021/03/26 11:47:53;;;;;;;;;;;22.60;59.60;;;;;;5071330;28;20392;-77
2021/03/26 11:50:22;;;;;;;;;;;22.50;57.20;;;;;;5072078;28;20014;-77
2021/03/26 11:52:56;;;;;;;;;;;22.30;58.60;;;;;;5072735;28;20250;-78
2021/03/26 11:55:29;;;;;;;;;;;22.00;57.30;;;;;;5070449;28;19909;-75
2021/03/26 11:58:04;;;;;;;;;;;21.50;57.40;;;;;;5072486;28;19908;-77
2021/03/26 12:00:31;;;;;;;;;;;21.00;59.30;;;;;;5072745;28;19913;-77
2021/03/26 12:03:11;;;;;;;;;;;20.60;59.70;;;;;;5071416;28;19917;-76
2021/03/26 12:05:42;;;;;;;;;;;20.30;59.70;;;;;;5070914;28;19912;-76
2021/03/26 12:08:13;;;;;;;;;;;20.10;60.30;;;;;;5061927;28;20003;-77
2021/03/26 12:10:39;;;;;;;;;;;19.90;62.10;;;;;;5070945;28;19909;-77
2021/03/26 12:13:35;;;;;;;;;;;19.90;61.00;;;;;;5071097;28;19922;-76
2021/03/26 12:16:27;;;;;;;;;;;19.80;60.20;;;;;;5051640;28;19912;-77
2021/03/26 12:19:05;;;;;;;;;;;19.70;62.50;;;;;;5069523;28;20012;-76
2021/03/26 12:21:40;;;;;;;;;;;19.40;62.10;;;;;;5069587;28;20002;-77
2021/03/26 12:24:10;;;;;;;;;;;19.30;62.80;;;;;;5069944;28;20369;-78
2021/03/26 12:26:40;;;;;;;;;;;19.20;62.70;;;;;;5069465;28;20379;-77
2021/03/26 12:29:05;;;;;;;;;;;19.20;62.90;;;;;;5069970;28;20003;-77
2021/03/26 12:31:50;;;;;;;;;;;19.30;63.60;;;;;;5069455;28;19958;-77
2021/03/26 12:34:22;;;;;;;;;;;19.40;63.40;;;;;;5069274;28;19919;-78
2021/03/26 12:36:53;;;;;;;;;;;19.30;62.60;;;;;;5054115;28;20065;-77
2021/03/26 12:39:48;;;;;;;;;;;19.30;61.70;;;;;;5068282;28;20006;-77
2021/03/26 12:42:20;;;;;;;;;;;19.00;61.90;;;;;;5060612;28;20422;-76
2021/03/26 12:44:54;;;;;;;;;;;18.70;63.60;;;;;;5071234;28;20021;-77
2021/03/26 12:47:24;;;;;;;;;;;18.50;62.70;;;;;;5070954;28;20388;-77
2021/03/26 12:49:53;;;;;;;;;;;18.30;62.70;;;;;;5074119;28;19908;-77
2021/03/26 12:52:25;;;;;;;;;;;18.20;63.50;;;;;;5072972;28;20190;-79
2021/03/26 12:55:16;;;;;;;;;;;18.10;65.10;;;;;;5074029;28;19987;-77
2021/03/26 12:57:48;;;;;;;;;;;18.00;65.90;;;;;;5072337;28;19912;-77
2021/03/26 13:00:16;;;;;;;;;;;17.80;65.90;;;;;;5072660;28;19908;-77
2021/03/26 13:02:54;;;;;;;;;;;17.80;67.20;;;;;;5073430;28;20432;-75
2021/03/26 13:05:26;;;;;;;;;;;17.80;67.50;;;;;;5072326;28;19908;-76
2021/03/26 13:08:03;;;;;;;;;;;17.80;65.90;;;;;;5064406;28;20361;-76
2021/03/26 13:10:29;;;;;;;;;;;17.80;66.30;;;;;;5073704;28;19953;-77
2021/03/26 13:13:03;;;;;;;;;;;17.90;66.50;;;;;;5073797;28;19909;-77
2021/03/26 13:15:31;;;;;;;;;;;17.80;67.00;;;;;;5072306;28;19916;-77
2021/03/26 13:18:02;;;;;;;;;;;17.70;66.40;;;;;;5072019;28;20289;-77
2021/03/26 13:20:28;;;;;;;;;;;17.60;67.50;;;;;;5073624;28;19908;-77
2021/03/26 13:22:56;;;;;;;;;;;17.70;69.40;;;;;;5070589;28;19915;-75
2021/03/26 13:25:22;;;;;;;;;;;17.80;66.80;;;;;;5069394;28;20186;-77
2021/03/26 13:27:57;;;;;;;;;;;17.90;65.10;;;;;;5067072;28;19917;-77
2021/03/26 13:30:31;;;;;;;;;;;17.90;67.50;;;;;;5070566;28;19908;-77
2021/03/26 13:32:57;;;;;;;;;;;17.70;66.80;;;;;;5069213;28;20361;-77
2021/03/26 13:35:25;;;;;;;;;;;17.60;67.10;;;;;;5070662;28;19923;-77
2021/03/26 13:37:58;;;;;;;;;;;17.60;66.20;;;;;;5063814;28;19909;-77
2021/03/26 13:40:24;;;;;;;;;;;17.70;66.00;;;;;;5091094;28;20297;-77
2021/03/26 13:42:52;;;;;;;;;;;17.70;65.50;;;;;;5094429;28;19938;-76
2021/03/26 13:45:19;;;;;;;;;;;17.70;64.50;;;;;;5094848;28;19955;-74
2021/03/26 13:47:47;;;;;;;;;;;17.70;65.50;;;;;;5075703;28;20288;-77
2021/03/26 13:50:16;;;;;;;;;;;17.60;66.50;;;;;;5069761;28;19961;-77
2021/03/26 13:52:49;;;;;;;;;;;17.70;66.00;;;;;;5074181;28;19912;-77
2021/03/26 13:55:14;;;;;;;;;;;17.70;67.30;;;;;;5073242;28;19916;-76
2021/03/26 13:57:41;;;;;;;;;;;17.70;63.00;;;;;;5073980;28;19912;-77
2021/03/26 14:00:07;;;;;;;;;;;17.60;64.60;;;;;;5074982;28;19908;-77
2021/03/26 14:02:34;;;;;;;;;;;17.60;65.50;;;;;;5073829;28;19909;-77
2021/03/26 14:05:15;;;;;;;;;;;17.70;65.50;;;;;;5073776;28;19995;-77
2021/03/26 14:07:43;;;;;;;;;;;17.80;65.30;;;;;;5067055;28;20487;-77
2021/03/26 14:10:15;;;;;;;;;;;17.90;67.20;;;;;;5073947;28;19966;-76
2021/03/26 14:12:42;;;;;;;;;;;18.10;66.00;;;;;;5075725;28;20357;-77
2021/03/26 14:15:21;;;;;;;;;;;18.30;66.30;;;;;;5073408;28;19916;-77
2021/03/26 14:18:09;;;;;;;;;;;18.20;63.90;;;;;;5070321;28;20106;-78
2021/03/26 14:20:53;;;;;;;;;;;18.20;66.30;;;;;;5065793;28;19924;-78
2021/03/26 14:23:18;;;;;;;;;;;18.20;65.70;;;;;;5069564;28;19909;-78
2021/03/26 14:25:49;;;;;;;;;;;18.10;63.70;;;;;;5066917;28;19935;-77
2021/03/26 14:28:35;;;;;;;;;;;17.90;63.10;;;;;;5073186;28;20423;-77
2021/03/26 14:31:09;;;;;;;;;;;17.90;64.30;;;;;;5073164;28;19915;-77
2021/03/26 14:33:37;;;;;;;;;;;17.80;63.30;;;;;;5073474;28;19909;-77
2021/03/26 14:36:06;;;;;;;;;;;17.80;64.10;;;;;;5073901;28;20336;-77
2021/03/26 14:38:43;;;;;;;;;;;17.80;64.60;;;;;;5065061;28;19915;-75
2021/03/26 14:41:29;;;;;;;;;;;17.70;65.70;;;;;;5073798;28;19908;-77
2021/03/26 14:43:57;;;;;;;;;;;17.70;63.50;;;;;;5074410;28;19912;-77
2021/03/26 14:46:23;;;;;;;;;;;17.80;65.30;;;;;;5073493;28;19908;-77
2021/03/26 14:48:51;;;;;;;;;;;17.80;65.50;;;;;;5073214;28;20365;-77
2021/03/26 14:51:35;;;;;;;;;;;17.70;64.20;;;;;;5073943;28;20274;-77
2021/03/26 14:54:13;;;;;;;;;;;17.80;64.10;;;;;;5072414;28;19908;-77
2021/03/26 14:56:47;;;;;;;;;;;18.10;64.10;;;;;;5072495;28;19912;-77
2021/03/26 14:59:15;;;;;;;;;;;18.60;63.60;;;;;;5073612;28;19909;-76